sensor_id;sensor_type;location;lat;lon;timestamp;temperature;humidity
67161;DHT22;54088;52.238;21.104;2022-11-09T00:02:22;8.20;96.50
67161;DHT22;54088;52.238;21.104;2022-11-09T00:04:48;8.20;96.50
67161;DHT22;54088;52.238;21.104;2022-11-09T00:07:14;8.20;96.40
67161;DHT22;54088;52.238;21.104;2022-11-09T00:09:39;8.20;96.40
67161;DHT22;54088;52.238;21.104;2022-11-09T00:12:05;8.10;96.40
67161;DHT22;54088;52.238;21.104;2022-11-09T00:14:32;8.10;96.40
67161;DHT22;54088;52.238;21.104;2022-11-09T00:16:58;8.10;96.70
67161;DHT22;54088;52.238;21.104;2022-11-09T00:19:24;8.10;96.30
67161;DHT22;54088;52.238;21.104;2022-11-09T00:21:50;8.10;96.30
67161;DHT22;54088;52.238;21.104;2022-11-09T00:24:16;8.10;96.40
67161;DHT22;54088;52.238;21.104;2022-11-09T00:26:41;8.10;96.30
67161;DHT22;54088;52.238;21.104;2022-11-09T00:29:07;8.10;96.30
67161;DHT22;54088;52.238;21.104;2022-11-09T00:31:33;8.10;96.30
67161;DHT22;54088;52.238;21.104;2022-11-09T00:33:58;8.10;96.20
67161;DHT22;54088;52.238;21.104;2022-11-09T00:36:27;8.10;96.40
67161;DHT22;54088;52.238;21.104;2022-11-09T00:38:59;8.10;96.30
67161;DHT22;54088;52.238;21.104;2022-11-09T00:41:25;8.10;96.30
67161;DHT22;54088;52.238;21.104;2022-11-09T00:43:52;8.10;96.30
67161;DHT22;54088;52.238;21.104;2022-11-09T00:46:18;8.10;96.20
67161;DHT22;54088;52.238;21.104;2022-11-09T00:48:44;8.10;96.20
67161;DHT22;54088;52.238;21.104;2022-11-09T00:51:11;8.20;96.20
67161;DHT22;54088;52.238;21.104;2022-11-09T00:53:36;8.10;96.10
67161;DHT22;54088;52.238;21.104;2022-11-09T00:56:08;8.20;96.10
67161;DHT22;54088;52.238;21.104;2022-11-09T00:58:36;8.20;96.10
67161;DHT22;54088;52.238;21.104;2022-11-09T01:01:08;8.20;96.00
67161;DHT22;54088;52.238;21.104;2022-11-09T01:03:36;8.10;95.90
67161;DHT22;54088;52.238;21.104;2022-11-09T01:06:02;8.10;95.90
67161;DHT22;54088;52.238;21.104;2022-11-09T01:08:27;8.10;96.00
67161;DHT22;54088;52.238;21.104;2022-11-09T01:10:53;8.10;96.00
67161;DHT22;54088;52.238;21.104;2022-11-09T01:13:19;8.20;96.20
67161;DHT22;54088;52.238;21.104;2022-11-09T01:15:47;8.10;95.90
67161;DHT22;54088;52.238;21.104;2022-11-09T01:18:14;8.10;95.90
67161;DHT22;54088;52.238;21.104;2022-11-09T01:20:42;8.20;95.80
67161;DHT22;54088;52.238;21.104;2022-11-09T01:23:08;8.10;95.90
67161;DHT22;54088;52.238;21.104;2022-11-09T01:25:35;8.10;95.80
67161;DHT22;54088;52.238;21.104;2022-11-09T01:28:01;8.10;95.80
67161;DHT22;54088;52.238;21.104;2022-11-09T01:30:27;8.10;95.90
67161;DHT22;54088;52.238;21.104;2022-11-09T01:32:52;8.10;95.90
67161;DHT22;54088;52.238;21.104;2022-11-09T01:35:18;8.10;95.80
67161;DHT22;54088;52.238;21.104;2022-11-09T01:37:44;8.10;95.80
67161;DHT22;54088;52.238;21.104;2022-11-09T01:40:10;8.10;95.70
67161;DHT22;54088;52.238;21.104;2022-11-09T01:42:37;8.10;95.70
67161;DHT22;54088;52.238;21.104;2022-11-09T01:45:24;8.10;95.80
67161;DHT22;54088;52.238;21.104;2022-11-09T01:47:58;8.10;95.70
67161;DHT22;54088;52.238;21.104;2022-11-09T01:50:37;8.10;95.70
67161;DHT22;54088;52.238;21.104;2022-11-09T01:53:07;8.10;95.80
67161;DHT22;54088;52.238;21.104;2022-11-09T01:55:35;8.10;95.80
67161;DHT22;54088;52.238;21.104;2022-11-09T01:58:10;8.00;95.70
67161;DHT22;54088;52.238;21.104;2022-11-09T02:00:37;8.10;95.80
67161;DHT22;54088;52.238;21.104;2022-11-09T02:03:19;8.10;95.70
67161;DHT22;54088;52.238;21.104;2022-11-09T02:05:46;8.10;95.70
67161;DHT22;54088;52.238;21.104;2022-11-09T02:08:15;8.10;95.70
67161;DHT22;54088;52.238;21.104;2022-11-09T02:13:52;8.20;95.80
67161;DHT22;54088;52.238;21.104;2022-11-09T02:16:19;8.20;95.70
67161;DHT22;54088;52.238;21.104;2022-11-09T02:18:51;8.10;95.50
67161;DHT22;54088;52.238;21.104;2022-11-09T02:21:18;8.10;95.70
67161;DHT22;54088;52.238;21.104;2022-11-09T02:23:45;8.10;95.70
67161;DHT22;54088;52.238;21.104;2022-11-09T02:26:15;8.10;95.70
67161;DHT22;54088;52.238;21.104;2022-11-09T02:28:43;8.20;95.70
67161;DHT22;54088;52.238;21.104;2022-11-09T02:31:13;8.20;95.60
67161;DHT22;54088;52.238;21.104;2022-11-09T02:33:52;8.20;95.60
67161;DHT22;54088;52.238;21.104;2022-11-09T02:36:19;8.20;95.60
67161;DHT22;54088;52.238;21.104;2022-11-09T02:38:44;8.10;95.50
67161;DHT22;54088;52.238;21.104;2022-11-09T02:41:11;8.10;95.50
67161;DHT22;54088;52.238;21.104;2022-11-09T02:43:37;8.10;95.50
67161;DHT22;54088;52.238;21.104;2022-11-09T02:46:03;8.10;95.60
67161;DHT22;54088;52.238;21.104;2022-11-09T02:48:29;8.10;95.50
67161;DHT22;54088;52.238;21.104;2022-11-09T02:50:54;8.10;95.60
67161;DHT22;54088;52.238;21.104;2022-11-09T02:53:20;8.10;95.40
67161;DHT22;54088;52.238;21.104;2022-11-09T02:55:46;8.00;95.40
67161;DHT22;54088;52.238;21.104;2022-11-09T02:58:11;8.00;95.50
67161;DHT22;54088;52.238;21.104;2022-11-09T03:00:37;8.10;95.50
67161;DHT22;54088;52.238;21.104;2022-11-09T03:03:03;8.10;95.50
67161;DHT22;54088;52.238;21.104;2022-11-09T03:05:29;8.00;95.40
67161;DHT22;54088;52.238;21.104;2022-11-09T03:07:55;8.00;95.40
67161;DHT22;54088;52.238;21.104;2022-11-09T03:10:21;8.00;95.40
67161;DHT22;54088;52.238;21.104;2022-11-09T03:12:47;8.00;95.40
67161;DHT22;54088;52.238;21.104;2022-11-09T03:15:13;8.00;95.40
67161;DHT22;54088;52.238;21.104;2022-11-09T03:17:39;8.00;95.40
67161;DHT22;54088;52.238;21.104;2022-11-09T03:20:05;7.90;95.40
67161;DHT22;54088;52.238;21.104;2022-11-09T03:22:31;7.90;95.40
67161;DHT22;54088;52.238;21.104;2022-11-09T03:24:57;7.90;95.40
67161;DHT22;54088;52.238;21.104;2022-11-09T03:27:23;8.00;95.40
67161;DHT22;54088;52.238;21.104;2022-11-09T03:29:48;8.00;95.30
67161;DHT22;54088;52.238;21.104;2022-11-09T03:32:14;8.00;95.30
67161;DHT22;54088;52.238;21.104;2022-11-09T03:34:39;7.90;95.30
67161;DHT22;54088;52.238;21.104;2022-11-09T03:37:05;7.90;95.40
67161;DHT22;54088;52.238;21.104;2022-11-09T03:39:31;7.90;95.30
67161;DHT22;54088;52.238;21.104;2022-11-09T03:41:57;7.90;95.40
67161;DHT22;54088;52.238;21.104;2022-11-09T03:44:23;7.90;95.40
67161;DHT22;54088;52.238;21.104;2022-11-09T03:46:49;7.90;95.40
67161;DHT22;54088;52.238;21.104;2022-11-09T03:49:14;7.90;95.30
67161;DHT22;54088;52.238;21.104;2022-11-09T03:51:40;7.90;95.20
67161;DHT22;54088;52.238;21.104;2022-11-09T03:54:06;7.90;95.40
67161;DHT22;54088;52.238;21.104;2022-11-09T03:56:31;7.90;95.40
67161;DHT22;54088;52.238;21.104;2022-11-09T03:58:57;7.90;95.30
67161;DHT22;54088;52.238;21.104;2022-11-09T04:01:23;7.90;95.30
67161;DHT22;54088;52.238;21.104;2022-11-09T04:03:48;8.00;95.30
67161;DHT22;54088;52.238;21.104;2022-11-09T04:06:14;8.00;95.20
67161;DHT22;54088;52.238;21.104;2022-11-09T04:08:40;8.00;95.10
67161;DHT22;54088;52.238;21.104;2022-11-09T04:11:05;7.90;95.20
67161;DHT22;54088;52.238;21.104;2022-11-09T04:13:31;7.90;95.10
67161;DHT22;54088;52.238;21.104;2022-11-09T04:15:57;7.90;95.10
67161;DHT22;54088;52.238;21.104;2022-11-09T04:18:22;7.90;95.10
67161;DHT22;54088;52.238;21.104;2022-11-09T04:20:48;7.90;95.20
67161;DHT22;54088;52.238;21.104;2022-11-09T04:23:13;7.90;95.20
67161;DHT22;54088;52.238;21.104;2022-11-09T04:25:40;7.90;95.20
67161;DHT22;54088;52.238;21.104;2022-11-09T04:28:08;7.90;95.10
67161;DHT22;54088;52.238;21.104;2022-11-09T04:30:35;7.80;95.10
67161;DHT22;54088;52.238;21.104;2022-11-09T04:33:02;7.80;95.20
67161;DHT22;54088;52.238;21.104;2022-11-09T04:35:29;7.80;95.30
67161;DHT22;54088;52.238;21.104;2022-11-09T04:40:24;7.80;95.30
67161;DHT22;54088;52.238;21.104;2022-11-09T04:42:50;7.80;95.30
67161;DHT22;54088;52.238;21.104;2022-11-09T04:45:16;7.70;95.30
67161;DHT22;54088;52.238;21.104;2022-11-09T04:47:42;7.70;95.40
67161;DHT22;54088;52.238;21.104;2022-11-09T04:50:08;7.70;95.40
67161;DHT22;54088;52.238;21.104;2022-11-09T04:52:33;7.70;95.40
67161;DHT22;54088;52.238;21.104;2022-11-09T04:54:59;7.70;95.50
67161;DHT22;54088;52.238;21.104;2022-11-09T04:57:24;7.60;95.50
67161;DHT22;54088;52.238;21.104;2022-11-09T04:59:50;7.60;95.50
67161;DHT22;54088;52.238;21.104;2022-11-09T05:02:16;7.60;95.60
67161;DHT22;54088;52.238;21.104;2022-11-09T05:04:41;7.60;95.60
67161;DHT22;54088;52.238;21.104;2022-11-09T05:07:07;7.60;95.70
67161;DHT22;54088;52.238;21.104;2022-11-09T05:09:32;7.50;95.70
67161;DHT22;54088;52.238;21.104;2022-11-09T05:11:58;7.50;95.70
67161;DHT22;54088;52.238;21.104;2022-11-09T05:14:24;7.50;95.80
67161;DHT22;54088;52.238;21.104;2022-11-09T05:16:49;7.60;95.90
67161;DHT22;54088;52.238;21.104;2022-11-09T05:19:15;7.50;95.90
67161;DHT22;54088;52.238;21.104;2022-11-09T05:21:41;7.50;95.80
67161;DHT22;54088;52.238;21.104;2022-11-09T05:24:06;7.50;95.90
67161;DHT22;54088;52.238;21.104;2022-11-09T05:26:40;7.50;95.90
67161;DHT22;54088;52.238;21.104;2022-11-09T05:29:07;7.50;95.90
67161;DHT22;54088;52.238;21.104;2022-11-09T05:31:34;7.50;95.80
67161;DHT22;54088;52.238;21.104;2022-11-09T05:34:00;7.50;95.90
67161;DHT22;54088;52.238;21.104;2022-11-09T05:36:27;7.50;95.90
67161;DHT22;54088;52.238;21.104;2022-11-09T05:38:53;7.50;95.90
67161;DHT22;54088;52.238;21.104;2022-11-09T05:41:19;7.50;95.90
67161;DHT22;54088;52.238;21.104;2022-11-09T05:43:46;7.50;95.90
67161;DHT22;54088;52.238;21.104;2022-11-09T05:46:13;7.50;95.90
67161;DHT22;54088;52.238;21.104;2022-11-09T05:48:39;7.50;96.00
67161;DHT22;54088;52.238;21.104;2022-11-09T05:51:06;7.50;95.90
67161;DHT22;54088;52.238;21.104;2022-11-09T05:53:32;7.60;95.90
67161;DHT22;54088;52.238;21.104;2022-11-09T05:56:06;7.60;95.70
67161;DHT22;54088;52.238;21.104;2022-11-09T05:58:32;7.60;95.70
67161;DHT22;54088;52.238;21.104;2022-11-09T06:01:03;7.70;95.60
67161;DHT22;54088;52.238;21.104;2022-11-09T06:03:28;7.70;95.50
67161;DHT22;54088;52.238;21.104;2022-11-09T06:05:54;7.60;95.40
67161;DHT22;54088;52.238;21.104;2022-11-09T06:08:24;7.70;95.40
67161;DHT22;54088;52.238;21.104;2022-11-09T06:10:49;7.70;95.50
67161;DHT22;54088;52.238;21.104;2022-11-09T06:13:15;7.70;95.50
67161;DHT22;54088;52.238;21.104;2022-11-09T06:15:40;7.70;95.40
67161;DHT22;54088;52.238;21.104;2022-11-09T06:18:06;7.70;95.20
67161;DHT22;54088;52.238;21.104;2022-11-09T06:20:32;7.80;95.20
67161;DHT22;54088;52.238;21.104;2022-11-09T06:23:01;7.70;95.10
67161;DHT22;54088;52.238;21.104;2022-11-09T06:25:27;7.70;95.20
67161;DHT22;54088;52.238;21.104;2022-11-09T06:27:53;7.70;95.20
67161;DHT22;54088;52.238;21.104;2022-11-09T06:30:20;7.70;95.20
67161;DHT22;54088;52.238;21.104;2022-11-09T06:32:46;7.80;95.20
67161;DHT22;54088;52.238;21.104;2022-11-09T06:35:12;7.80;95.10
67161;DHT22;54088;52.238;21.104;2022-11-09T06:37:37;7.90;95.20
67161;DHT22;54088;52.238;21.104;2022-11-09T06:40:04;7.90;95.10
67161;DHT22;54088;52.238;21.104;2022-11-09T06:42:30;7.90;95.10
67161;DHT22;54088;52.238;21.104;2022-11-09T06:44:55;8.00;95.10
67161;DHT22;54088;52.238;21.104;2022-11-09T06:47:21;8.00;95.00
67161;DHT22;54088;52.238;21.104;2022-11-09T06:49:46;8.10;94.90
67161;DHT22;54088;52.238;21.104;2022-11-09T06:52:12;8.10;94.90
67161;DHT22;54088;52.238;21.104;2022-11-09T06:54:38;8.20;94.80
67161;DHT22;54088;52.238;21.104;2022-11-09T06:57:03;8.20;95.00
67161;DHT22;54088;52.238;21.104;2022-11-09T06:59:29;8.20;94.80
67161;DHT22;54088;52.238;21.104;2022-11-09T07:01:55;8.30;94.70
67161;DHT22;54088;52.238;21.104;2022-11-09T07:04:20;8.30;94.50
67161;DHT22;54088;52.238;21.104;2022-11-09T07:06:46;8.40;94.50
67161;DHT22;54088;52.238;21.104;2022-11-09T07:09:12;8.40;94.50
67161;DHT22;54088;52.238;21.104;2022-11-09T07:11:37;8.50;94.30
67161;DHT22;54088;52.238;21.104;2022-11-09T07:14:03;8.60;94.60
67161;DHT22;54088;52.238;21.104;2022-11-09T07:16:29;8.70;94.10
67161;DHT22;54088;52.238;21.104;2022-11-09T07:18:55;8.70;94.00
67161;DHT22;54088;52.238;21.104;2022-11-09T07:21:21;8.80;93.90
67161;DHT22;54088;52.238;21.104;2022-11-09T07:23:48;8.80;93.90
67161;DHT22;54088;52.238;21.104;2022-11-09T07:26:14;8.90;93.90
67161;DHT22;54088;52.238;21.104;2022-11-09T07:28:40;9.00;93.70
67161;DHT22;54088;52.238;21.104;2022-11-09T07:31:06;9.00;93.60
67161;DHT22;54088;52.238;21.104;2022-11-09T07:33:32;9.00;93.50
67161;DHT22;54088;52.238;21.104;2022-11-09T07:35:59;9.00;93.50
67161;DHT22;54088;52.238;21.104;2022-11-09T07:38:26;9.10;93.40
67161;DHT22;54088;52.238;21.104;2022-11-09T07:40:52;9.20;93.30
67161;DHT22;54088;52.238;21.104;2022-11-09T07:43:18;9.20;93.20
67161;DHT22;54088;52.238;21.104;2022-11-09T07:45:44;9.30;93.10
67161;DHT22;54088;52.238;21.104;2022-11-09T07:48:10;9.40;93.00
67161;DHT22;54088;52.238;21.104;2022-11-09T07:50:54;9.40;92.90
67161;DHT22;54088;52.238;21.104;2022-11-09T07:53:22;9.40;92.80
67161;DHT22;54088;52.238;21.104;2022-11-09T07:55:58;9.60;92.80
67161;DHT22;54088;52.238;21.104;2022-11-09T07:58:24;9.60;92.50
67161;DHT22;54088;52.238;21.104;2022-11-09T08:00:50;9.70;92.50
67161;DHT22;54088;52.238;21.104;2022-11-09T08:03:18;9.70;92.50
67161;DHT22;54088;52.238;21.104;2022-11-09T08:05:45;9.70;92.30
67161;DHT22;54088;52.238;21.104;2022-11-09T08:08:11;9.80;92.30
67161;DHT22;54088;52.238;21.104;2022-11-09T08:10:37;9.90;92.30
67161;DHT22;54088;52.238;21.104;2022-11-09T08:13:12;10.00;92.30
67161;DHT22;54088;52.238;21.104;2022-11-09T08:15:39;10.00;92.00
67161;DHT22;54088;52.238;21.104;2022-11-09T08:18:07;10.10;92.00
67161;DHT22;54088;52.238;21.104;2022-11-09T08:20:34;10.20;92.00
67161;DHT22;54088;52.238;21.104;2022-11-09T08:23:00;10.30;91.80
67161;DHT22;54088;52.238;21.104;2022-11-09T08:25:25;10.40;91.70
67161;DHT22;54088;52.238;21.104;2022-11-09T08:27:51;10.50;91.60
67161;DHT22;54088;52.238;21.104;2022-11-09T08:30:19;10.60;91.30
67161;DHT22;54088;52.238;21.104;2022-11-09T08:32:45;10.70;91.00
67161;DHT22;54088;52.238;21.104;2022-11-09T08:35:12;10.70;91.10
67161;DHT22;54088;52.238;21.104;2022-11-09T08:37:42;10.80;91.10
67161;DHT22;54088;52.238;21.104;2022-11-09T08:40:08;11.00;91.00
67161;DHT22;54088;52.238;21.104;2022-11-09T08:42:34;11.10;90.80
67161;DHT22;54088;52.238;21.104;2022-11-09T08:45:00;11.30;90.60
67161;DHT22;54088;52.238;21.104;2022-11-09T08:47:27;11.40;90.60
67161;DHT22;54088;52.238;21.104;2022-11-09T08:49:52;11.40;90.20
67161;DHT22;54088;52.238;21.104;2022-11-09T08:52:18;11.40;90.20
67161;DHT22;54088;52.238;21.104;2022-11-09T08:54:44;11.50;90.30
67161;DHT22;54088;52.238;21.104;2022-11-09T08:57:09;11.60;90.30
67161;DHT22;54088;52.238;21.104;2022-11-09T08:59:35;11.70;89.50
67161;DHT22;54088;52.238;21.104;2022-11-09T09:02:01;11.80;89.50
67161;DHT22;54088;52.238;21.104;2022-11-09T09:04:26;11.90;89.00
67161;DHT22;54088;52.238;21.104;2022-11-09T09:06:52;12.00;88.80
67161;DHT22;54088;52.238;21.104;2022-11-09T09:09:18;12.10;88.30
67161;DHT22;54088;52.238;21.104;2022-11-09T09:11:44;12.20;88.20
67161;DHT22;54088;52.238;21.104;2022-11-09T09:14:10;12.30;88.00
67161;DHT22;54088;52.238;21.104;2022-11-09T09:16:36;12.40;87.00
67161;DHT22;54088;52.238;21.104;2022-11-09T09:19:02;12.60;86.80
67161;DHT22;54088;52.238;21.104;2022-11-09T09:21:27;12.70;85.60
67161;DHT22;54088;52.238;21.104;2022-11-09T09:23:53;12.80;85.80
67161;DHT22;54088;52.238;21.104;2022-11-09T09:26:19;12.80;85.20
67161;DHT22;54088;52.238;21.104;2022-11-09T09:28:45;12.80;84.70
67161;DHT22;54088;52.238;21.104;2022-11-09T09:31:10;12.90;85.30
67161;DHT22;54088;52.238;21.104;2022-11-09T09:33:36;13.00;85.00
67161;DHT22;54088;52.238;21.104;2022-11-09T09:36:02;13.10;84.30
67161;DHT22;54088;52.238;21.104;2022-11-09T09:38:29;13.20;83.50
67161;DHT22;54088;52.238;21.104;2022-11-09T09:40:58;13.30;83.30
67161;DHT22;54088;52.238;21.104;2022-11-09T09:45:57;13.40;82.40
67161;DHT22;54088;52.238;21.104;2022-11-09T09:53:46;13.70;81.60
67161;DHT22;54088;52.238;21.104;2022-11-09T09:56:32;13.80;80.80
67161;DHT22;54088;52.238;21.104;2022-11-09T09:59:12;13.80;80.40
67161;DHT22;54088;52.238;21.104;2022-11-09T10:01:42;13.80;80.40
67161;DHT22;54088;52.238;21.104;2022-11-09T10:04:29;13.80;80.50
67161;DHT22;54088;52.238;21.104;2022-11-09T10:15:30;13.50;80.90
67161;DHT22;54088;52.238;21.104;2022-11-09T10:24:10;13.50;80.90
67161;DHT22;54088;52.238;21.104;2022-11-09T10:26:45;13.50;80.90
67161;DHT22;54088;52.238;21.104;2022-11-09T10:29:35;13.60;81.10
67161;DHT22;54088;52.238;21.104;2022-11-09T10:32:17;13.50;80.70
67161;DHT22;54088;52.238;21.104;2022-11-09T10:42:29;13.40;81.60
67161;DHT22;54088;52.238;21.104;2022-11-09T10:44:55;13.40;81.60
67161;DHT22;54088;52.238;21.104;2022-11-09T10:47:21;13.40;81.60
67161;DHT22;54088;52.238;21.104;2022-11-09T10:50:16;13.40;81.60
67161;DHT22;54088;52.238;21.104;2022-11-09T10:52:45;13.40;81.80
67161;DHT22;54088;52.238;21.104;2022-11-09T10:55:27;13.40;81.80
67161;DHT22;54088;52.238;21.104;2022-11-09T10:58:27;13.50;82.10
67161;DHT22;54088;52.238;21.104;2022-11-09T11:03:39;13.60;81.40
67161;DHT22;54088;52.238;21.104;2022-11-09T11:08:40;13.70;80.90
67161;DHT22;54088;52.238;21.104;2022-11-09T11:11:22;13.70;81.00
67161;DHT22;54088;52.238;21.104;2022-11-09T11:13:48;13.60;81.60
67161;DHT22;54088;52.238;21.104;2022-11-09T11:16:15;13.60;81.30
67161;DHT22;54088;52.238;21.104;2022-11-09T11:18:48;13.60;81.20
67161;DHT22;54088;52.238;21.104;2022-11-09T11:21:17;13.60;81.30
67161;DHT22;54088;52.238;21.104;2022-11-09T11:23:43;13.50;81.10
67161;DHT22;54088;52.238;21.104;2022-11-09T11:31:47;13.60;80.90
67161;DHT22;54088;52.238;21.104;2022-11-09T11:34:14;13.60;80.80
67161;DHT22;54088;52.238;21.104;2022-11-09T11:56:11;13.90;80.50
67161;DHT22;54088;52.238;21.104;2022-11-09T12:05:24;13.90;80.00
67161;DHT22;54088;52.238;21.104;2022-11-09T12:22:05;13.80;80.60
67161;DHT22;54088;52.238;21.104;2022-11-09T12:25:21;14.00;80.40
67161;DHT22;54088;52.238;21.104;2022-11-09T12:37:57;14.10;79.90
67161;DHT22;54088;52.238;21.104;2022-11-09T12:40:26;14.10;79.70
67161;DHT22;54088;52.238;21.104;2022-11-09T12:45:43;14.10;79.20
67161;DHT22;54088;52.238;21.104;2022-11-09T12:48:24;14.10;79.50
67161;DHT22;54088;52.238;21.104;2022-11-09T12:50:51;14.10;79.30
67161;DHT22;54088;52.238;21.104;2022-11-09T12:53:20;14.10;79.70
67161;DHT22;54088;52.238;21.104;2022-11-09T12:58:27;14.10;79.60
67161;DHT22;54088;52.238;21.104;2022-11-09T13:01:01;14.00;79.60
67161;DHT22;54088;52.238;21.104;2022-11-09T13:04:14;14.00;79.70
67161;DHT22;54088;52.238;21.104;2022-11-09T13:06:24;14.00;80.00
67161;DHT22;54088;52.238;21.104;2022-11-09T13:09:00;14.00;79.70
67161;DHT22;54088;52.238;21.104;2022-11-09T13:11:42;14.00;79.80
67161;DHT22;54088;52.238;21.104;2022-11-09T13:19:52;13.90;80.40
67161;DHT22;54088;52.238;21.104;2022-11-09T13:24:56;13.80;80.50
67161;DHT22;54088;52.238;21.104;2022-11-09T13:27:43;13.80;80.70
67161;DHT22;54088;52.238;21.104;2022-11-09T13:38:23;13.80;81.10
67161;DHT22;54088;52.238;21.104;2022-11-09T13:40:54;13.70;81.30
67161;DHT22;54088;52.238;21.104;2022-11-09T13:45:56;13.60;81.70
67161;DHT22;54088;52.238;21.104;2022-11-09T13:51:43;13.60;82.10
67161;DHT22;54088;52.238;21.104;2022-11-09T13:58:51;13.50;82.50
67161;DHT22;54088;52.238;21.104;2022-11-09T14:03:52;13.50;82.90
67161;DHT22;54088;52.238;21.104;2022-11-09T14:06:18;13.50;82.80
67161;DHT22;54088;52.238;21.104;2022-11-09T14:08:45;13.40;83.40
67161;DHT22;54088;52.238;21.104;2022-11-09T14:11:36;13.40;83.00
67161;DHT22;54088;52.238;21.104;2022-11-09T14:16:39;13.40;83.10
67161;DHT22;54088;52.238;21.104;2022-11-09T14:21:45;13.40;83.30
67161;DHT22;54088;52.238;21.104;2022-11-09T14:24:22;13.40;83.50
67161;DHT22;54088;52.238;21.104;2022-11-09T14:34:49;13.40;83.60
67161;DHT22;54088;52.238;21.104;2022-11-09T14:37:15;13.30;83.60
67161;DHT22;54088;52.238;21.104;2022-11-09T14:39:46;13.30;83.90
67161;DHT22;54088;52.238;21.104;2022-11-09T14:42:18;13.30;84.00
67161;DHT22;54088;52.238;21.104;2022-11-09T14:44:45;13.30;84.00
67161;DHT22;54088;52.238;21.104;2022-11-09T14:47:21;13.30;84.10
67161;DHT22;54088;52.238;21.104;2022-11-09T14:49:49;13.30;84.50
67161;DHT22;54088;52.238;21.104;2022-11-09T14:52:17;13.20;84.20
67161;DHT22;54088;52.238;21.104;2022-11-09T14:54:46;13.20;84.40
67161;DHT22;54088;52.238;21.104;2022-11-09T14:57:14;13.20;84.50
67161;DHT22;54088;52.238;21.104;2022-11-09T14:59:42;13.10;84.80
67161;DHT22;54088;52.238;21.104;2022-11-09T15:02:14;13.10;85.00
67161;DHT22;54088;52.238;21.104;2022-11-09T15:07:53;13.00;85.30
67161;DHT22;54088;52.238;21.104;2022-11-09T15:10:19;13.00;85.50
67161;DHT22;54088;52.238;21.104;2022-11-09T15:12:52;13.00;85.70
67161;DHT22;54088;52.238;21.104;2022-11-09T15:15:22;12.90;85.90
67161;DHT22;54088;52.238;21.104;2022-11-09T15:17:49;12.90;85.90
67161;DHT22;54088;52.238;21.104;2022-11-09T15:22:56;12.90;86.20
67161;DHT22;54088;52.238;21.104;2022-11-09T15:28:23;12.80;86.20
67161;DHT22;54088;52.238;21.104;2022-11-09T15:35:54;12.70;86.80
67161;DHT22;54088;52.238;21.104;2022-11-09T15:40:53;12.60;87.10
67161;DHT22;54088;52.238;21.104;2022-11-09T15:43:18;12.60;87.20
67161;DHT22;54088;52.238;21.104;2022-11-09T15:45:44;12.50;87.50
67161;DHT22;54088;52.238;21.104;2022-11-09T15:48:10;12.40;87.80
67161;DHT22;54088;52.238;21.104;2022-11-09T15:50:35;12.40;87.90
67161;DHT22;54088;52.238;21.104;2022-11-09T15:53:01;12.40;88.20
67161;DHT22;54088;52.238;21.104;2022-11-09T15:55:27;12.30;88.40
67161;DHT22;54088;52.238;21.104;2022-11-09T15:57:52;12.30;88.70
67161;DHT22;54088;52.238;21.104;2022-11-09T16:00:20;12.30;88.80
67161;DHT22;54088;52.238;21.104;2022-11-09T16:02:45;12.30;88.80
67161;DHT22;54088;52.238;21.104;2022-11-09T16:05:11;12.20;88.90
67161;DHT22;54088;52.238;21.104;2022-11-09T16:07:45;12.20;88.90
67161;DHT22;54088;52.238;21.104;2022-11-09T16:10:14;12.20;89.20
67161;DHT22;54088;52.238;21.104;2022-11-09T16:12:40;12.20;89.70
67161;DHT22;54088;52.238;21.104;2022-11-09T16:15:06;12.20;89.00
67161;DHT22;54088;52.238;21.104;2022-11-09T16:17:31;12.20;89.30
67161;DHT22;54088;52.238;21.104;2022-11-09T16:19:57;12.10;89.40
67161;DHT22;54088;52.238;21.104;2022-11-09T16:22:23;12.10;89.60
67161;DHT22;54088;52.238;21.104;2022-11-09T16:24:53;12.10;89.70
67161;DHT22;54088;52.238;21.104;2022-11-09T16:27:18;12.00;89.80
67161;DHT22;54088;52.238;21.104;2022-11-09T16:29:44;12.00;90.00
67161;DHT22;54088;52.238;21.104;2022-11-09T16:32:10;12.00;90.00
67161;DHT22;54088;52.238;21.104;2022-11-09T16:34:35;12.00;90.10
67161;DHT22;54088;52.238;21.104;2022-11-09T16:37:02;11.90;90.10
67161;DHT22;54088;52.238;21.104;2022-11-09T16:39:31;11.90;90.20
67161;DHT22;54088;52.238;21.104;2022-11-09T16:41:58;11.90;90.20
67161;DHT22;54088;52.238;21.104;2022-11-09T16:44:30;11.90;90.20
67161;DHT22;54088;52.238;21.104;2022-11-09T16:47:00;11.90;90.20
67161;DHT22;54088;52.238;21.104;2022-11-09T16:49:26;11.80;90.20
67161;DHT22;54088;52.238;21.104;2022-11-09T16:51:52;11.80;90.20
67161;DHT22;54088;52.238;21.104;2022-11-09T16:54:17;11.80;90.60
67161;DHT22;54088;52.238;21.104;2022-11-09T16:56:43;11.70;90.30
67161;DHT22;54088;52.238;21.104;2022-11-09T16:59:09;11.70;90.40
67161;DHT22;54088;52.238;21.104;2022-11-09T17:01:34;11.70;90.40
67161;DHT22;54088;52.238;21.104;2022-11-09T17:04:00;11.70;90.50
67161;DHT22;54088;52.238;21.104;2022-11-09T17:06:26;11.70;90.50
67161;DHT22;54088;52.238;21.104;2022-11-09T17:08:55;11.60;90.50
67161;DHT22;54088;52.238;21.104;2022-11-09T17:11:21;11.60;90.50
67161;DHT22;54088;52.238;21.104;2022-11-09T17:13:47;11.60;90.50
67161;DHT22;54088;52.238;21.104;2022-11-09T17:16:13;11.60;90.60
67161;DHT22;54088;52.238;21.104;2022-11-09T17:18:41;11.60;90.60
67161;DHT22;54088;52.238;21.104;2022-11-09T17:21:11;11.50;90.60
67161;DHT22;54088;52.238;21.104;2022-11-09T17:23:39;11.50;90.60
67161;DHT22;54088;52.238;21.104;2022-11-09T17:26:07;11.50;90.60
67161;DHT22;54088;52.238;21.104;2022-11-09T17:28:33;11.40;90.70
67161;DHT22;54088;52.238;21.104;2022-11-09T17:31:06;11.50;90.70
67161;DHT22;54088;52.238;21.104;2022-11-09T17:33:31;11.40;90.70
67161;DHT22;54088;52.238;21.104;2022-11-09T17:36:01;11.40;90.70
67161;DHT22;54088;52.238;21.104;2022-11-09T17:38:28;11.40;90.60
67161;DHT22;54088;52.238;21.104;2022-11-09T17:41:05;11.40;90.60
67161;DHT22;54088;52.238;21.104;2022-11-09T17:43:33;11.40;90.60
67161;DHT22;54088;52.238;21.104;2022-11-09T17:46:19;11.40;90.70
67161;DHT22;54088;52.238;21.104;2022-11-09T17:48:46;11.40;90.80
67161;DHT22;54088;52.238;21.104;2022-11-09T17:51:13;11.40;90.80
67161;DHT22;54088;52.238;21.104;2022-11-09T17:53:39;11.30;90.80
67161;DHT22;54088;52.238;21.104;2022-11-09T17:56:06;11.30;90.80
67161;DHT22;54088;52.238;21.104;2022-11-09T17:58:38;11.20;90.90
67161;DHT22;54088;52.238;21.104;2022-11-09T18:01:10;11.20;91.00
67161;DHT22;54088;52.238;21.104;2022-11-09T18:03:37;11.10;91.10
67161;DHT22;54088;52.238;21.104;2022-11-09T18:06:07;11.10;91.30
67161;DHT22;54088;52.238;21.104;2022-11-09T18:08:33;11.00;91.30
67161;DHT22;54088;52.238;21.104;2022-11-09T18:10:59;11.00;91.40
67161;DHT22;54088;52.238;21.104;2022-11-09T18:13:25;11.00;91.60